createdAt,value
2019-05-25T00:00:33.991Z,13.52
2019-05-25T00:05:38.923Z,13.61
2019-05-25T00:10:43.769Z,13.61
2019-05-25T00:15:48.488Z,13.62
2019-05-25T00:20:53.407Z,13.85
2019-05-25T00:25:58.176Z,13.77
2019-05-25T00:31:02.926Z,13.83
2019-05-25T00:36:07.627Z,13.82
2019-05-25T00:41:12.280Z,13.94
2019-05-25T00:46:16.971Z,14.00
2019-05-25T00:51:21.746Z,13.98
2019-05-25T00:56:26.556Z,13.84
2019-05-25T01:01:31.359Z,13.81
2019-05-25T01:06:36.521Z,13.86
2019-05-25T01:11:41.208Z,13.83
2019-05-25T01:16:45.941Z,13.73
2019-05-25T01:21:50.667Z,13.69
2019-05-25T01:26:55.398Z,13.82
2019-05-25T01:32:00.181Z,13.80
2019-05-25T01:37:04.825Z,13.70
2019-05-25T01:42:09.754Z,13.81
2019-05-25T01:47:14.722Z,13.79
2019-05-25T01:52:19.399Z,13.88
2019-05-25T01:57:24.166Z,14.01
2019-05-25T02:02:29.327Z,14.21
2019-05-25T02:07:34.285Z,14.22
2019-05-25T02:12:39.209Z,14.15
2019-05-25T02:17:43.900Z,14.04
2019-05-25T02:22:48.678Z,13.96
2019-05-25T02:27:53.539Z,14.11
2019-05-25T02:32:58.420Z,14.00
2019-05-25T02:38:03.222Z,14.21
2019-05-25T02:43:07.945Z,13.92
2019-05-25T02:48:12.626Z,13.92
2019-05-25T02:53:17.335Z,13.95
2019-05-25T02:58:22.143Z,13.96
2019-05-25T03:03:27.072Z,14.02
2019-05-25T03:08:32.311Z,13.95
2019-05-25T03:13:37.103Z,13.94
2019-05-25T03:18:41.786Z,13.94
2019-05-25T03:23:46.516Z,13.89
2019-05-25T03:28:51.380Z,14.05
2019-05-25T03:33:56.107Z,14.07
2019-05-25T03:39:01.277Z,13.97
2019-05-25T03:44:06.295Z,13.94
2019-05-25T03:49:11.095Z,13.82
2019-05-25T03:54:15.787Z,13.80
2019-05-25T03:59:20.533Z,13.89
2019-05-25T04:04:25.429Z,14.00
2019-05-25T04:09:30.307Z,14.10
2019-05-25T04:14:35.163Z,14.15
2019-05-25T04:19:39.895Z,14.03
2019-05-25T04:24:44.913Z,14.07
2019-05-25T04:29:49.645Z,14.30
2019-05-25T04:34:54.406Z,14.33
2019-05-25T04:39:59.445Z,14.30
2019-05-25T04:45:04.375Z,14.33
2019-05-25T04:50:09.506Z,14.42
2019-05-25T04:55:14.478Z,14.56
2019-05-25T05:00:19.508Z,14.63
2019-05-25T05:05:24.305Z,14.64
2019-05-25T05:10:29.327Z,14.55
2019-05-25T05:15:34.035Z,14.68
2019-05-25T05:20:38.803Z,14.62
2019-05-25T05:25:43.545Z,14.43
2019-05-25T05:30:48.403Z,14.51
2019-05-25T05:35:54.150Z,14.48
2019-05-25T05:41:00.570Z,14.62
2019-05-25T05:46:08.203Z,14.54
2019-05-25T05:51:16.396Z,14.48
2019-05-25T05:56:21.436Z,14.48
2019-05-25T06:01:26.276Z,14.53
2019-05-25T06:06:30.951Z,14.78
2019-05-25T06:11:35.863Z,15.05
2019-05-25T06:16:41.075Z,14.96
2019-05-25T06:21:45.835Z,15.02
2019-05-25T06:26:50.647Z,15.17
2019-05-25T06:31:55.470Z,15.05
2019-05-25T06:37:00.156Z,15.27
2019-05-25T06:42:05.395Z,15.38
2019-05-25T06:47:10.120Z,15.45
2019-05-25T06:52:15.040Z,15.44
2019-05-25T06:57:19.770Z,15.31
2019-05-25T07:02:24.782Z,15.17
2019-05-25T07:07:29.687Z,15.27
2019-05-25T07:12:34.632Z,15.52
2019-05-25T07:17:39.602Z,15.26
2019-05-25T07:22:44.320Z,15.34
2019-05-25T07:27:58.857Z,15.39
2019-05-25T07:32:55.798Z,15.23
2019-05-25T07:38:01.111Z,15.28
2019-05-25T07:43:05.922Z,15.38
2019-05-25T07:48:10.613Z,15.70
2019-05-25T07:53:15.523Z,15.48
2019-05-25T07:58:20.396Z,15.16
2019-05-25T08:03:25.311Z,15.10
2019-05-25T08:08:30.190Z,14.92
2019-05-25T08:13:35.146Z,15.24
2019-05-25T08:18:40.243Z,15.18
2019-05-25T08:23:44.998Z,14.99
2019-05-25T08:28:49.913Z,14.88
2019-05-25T08:33:54.883Z,14.95
2019-05-25T08:38:59.940Z,15.26
2019-05-25T08:44:04.801Z,15.38
2019-05-25T08:49:10.174Z,15.92
2019-05-25T08:54:15.191Z,16.56
2019-05-25T08:59:20.647Z,17.23
2019-05-25T09:04:38.416Z,17.29
2019-05-25T09:09:43.535Z,17.56
2019-05-25T09:14:48.580Z,17.85
2019-05-25T09:19:53.513Z,18.23
2019-05-25T09:24:58.867Z,19.93
2019-05-25T09:30:03.931Z,21.14
2019-05-25T09:35:09.553Z,21.83
2019-05-25T09:40:16.219Z,22.33
2019-05-25T09:45:21.290Z,21.16
2019-05-25T09:50:26.210Z,21.89
2019-05-25T09:55:31.118Z,21.48
2019-05-25T10:00:40.089Z,21.66
2019-05-25T10:05:42.912Z,22.60
2019-05-25T10:10:47.810Z,23.04
2019-05-25T10:15:52.870Z,23.55
2019-05-25T10:20:57.739Z,24.81
2019-05-25T10:26:02.969Z,24.45
2019-05-25T10:31:08.062Z,23.33
2019-05-25T10:36:12.929Z,22.21
2019-05-25T10:41:17.879Z,22.75
2019-05-25T10:46:23.199Z,22.97
2019-05-25T10:51:28.069Z,23.05
2019-05-25T10:56:33.001Z,22.91
2019-05-25T11:01:37.991Z,23.64
2019-05-25T11:06:42.911Z,23.14
2019-05-25T11:11:47.934Z,23.30
2019-05-25T11:16:52.768Z,22.82
2019-05-25T11:21:57.859Z,22.49
2019-05-25T11:27:02.823Z,22.28
2019-05-25T11:32:07.825Z,22.56
2019-05-25T11:37:15.631Z,22.30
2019-05-25T11:42:19.320Z,22.27
2019-05-25T11:47:24.253Z,22.09
2019-05-25T11:52:29.042Z,21.08
2019-05-25T11:57:33.991Z,20.15
2019-05-25T12:02:38.980Z,19.48
2019-05-25T12:07:45.018Z,19.49
2019-05-25T12:12:50.207Z,19.70
2019-05-25T12:17:55.258Z,19.84
2019-05-25T12:23:00.338Z,20.39
2019-05-25T12:28:05.188Z,21.32
2019-05-25T12:33:10.020Z,22.85
2019-05-25T12:38:15.083Z,22.76
2019-05-25T12:43:20.251Z,22.46
2019-05-25T12:48:25.179Z,22.13
2019-05-25T12:53:30.172Z,21.55
2019-05-25T12:58:35.270Z,21.72
2019-05-25T13:03:40.532Z,22.62
2019-05-25T13:08:45.633Z,22.86
2019-05-25T13:13:50.591Z,23.07
2019-05-25T13:18:55.563Z,22.71
2019-05-25T13:24:00.559Z,22.00
2019-05-25T13:29:06.243Z,22.29
2019-05-25T13:34:11.127Z,22.37
2019-05-25T13:39:16.033Z,21.96
2019-05-25T13:44:21.047Z,21.18
2019-05-25T13:49:25.903Z,20.41
2019-05-25T13:54:30.750Z,20.31
2019-05-25T13:59:35.588Z,19.90
2019-05-25T14:04:40.479Z,19.31
2019-05-25T14:09:45.471Z,18.82
2019-05-25T14:14:50.266Z,17.89
2019-05-25T14:19:55.131Z,17.49
2019-05-25T14:24:59.892Z,17.58
2019-05-25T14:30:04.931Z,17.80
2019-05-25T14:35:10.068Z,17.23
2019-05-25T14:40:15.531Z,17.05
2019-05-25T14:45:21.628Z,16.76
2019-05-25T14:50:26.918Z,16.55
2019-05-25T14:55:31.958Z,16.21
2019-05-25T15:00:37.363Z,16.48
2019-05-25T15:05:42.591Z,16.41
2019-05-25T15:10:47.611Z,16.33
2019-05-25T15:15:52.407Z,16.46
2019-05-25T15:20:57.450Z,16.58
2019-05-25T15:26:02.638Z,16.67
2019-05-25T15:31:08.151Z,16.14
2019-05-25T15:36:13.107Z,16.07
2019-05-25T15:41:18.288Z,15.87
2019-05-25T15:46:23.242Z,16.09
2019-05-25T15:51:28.230Z,16.14
2019-05-25T15:56:33.106Z,15.67
2019-05-25T16:01:38.487Z,15.80
2019-05-25T16:06:43.440Z,16.23
2019-05-25T16:11:48.386Z,16.67
2019-05-25T16:16:53.319Z,16.70
2019-05-25T16:21:58.368Z,16.94
2019-05-25T16:27:03.318Z,16.95
2019-05-25T16:32:08.348Z,16.87
2019-05-25T16:37:13.255Z,16.78
2019-05-25T16:42:18.170Z,16.49
2019-05-25T16:47:23.257Z,16.29
2019-05-25T16:52:28.158Z,16.59
2019-05-25T16:57:33.209Z,16.48
2019-05-25T17:02:38.362Z,16.50
2019-05-25T17:07:43.192Z,16.75
2019-05-25T17:12:48.760Z,16.80
2019-05-25T17:17:53.592Z,16.73
2019-05-25T17:22:58.431Z,16.64
2019-05-25T17:28:03.269Z,16.43
2019-05-25T17:33:08.300Z,16.39
2019-05-25T17:38:13.353Z,16.19
2019-05-25T17:43:18.401Z,16.19
2019-05-25T17:48:23.300Z,15.74
2019-05-25T17:53:28.192Z,15.75
2019-05-25T17:58:33.315Z,15.64
2019-05-25T18:03:38.283Z,15.81
2019-05-25T18:08:43.439Z,16.02
2019-05-25T18:13:48.451Z,16.20
2019-05-25T18:18:53.218Z,16.17
2019-05-25T18:23:58.271Z,16.03
2019-05-25T18:29:03.143Z,16.10
2019-05-25T18:34:21.132Z,15.95
2019-05-25T18:39:14.447Z,15.73
2019-05-25T18:44:19.610Z,15.58
2019-05-25T18:49:24.563Z,15.65
2019-05-25T18:54:29.351Z,15.64
2019-05-25T18:59:34.124Z,15.65
2019-05-25T19:04:45.943Z,15.57
2019-05-25T19:09:46.271Z,15.35
2019-05-25T19:14:52.240Z,15.02
2019-05-25T19:19:57.013Z,15.10
2019-05-25T19:25:01.651Z,15.21
2019-05-25T19:30:06.131Z,15.21
2019-05-25T19:35:12.371Z,15.10
2019-05-25T19:40:18.952Z,15.14
2019-05-25T19:45:24.558Z,14.95
2019-05-25T19:50:29.379Z,14.76
2019-05-25T19:55:34.318Z,14.78
2019-05-25T20:00:39.031Z,14.81
2019-05-25T20:05:43.859Z,14.56
2019-05-25T20:10:48.950Z,14.55
2019-05-25T20:15:53.691Z,14.56
2019-05-25T20:20:58.531Z,14.48
2019-05-25T20:26:03.237Z,14.35
2019-05-25T20:31:08.013Z,14.48
2019-05-25T20:36:12.748Z,14.41
2019-05-25T20:41:17.831Z,14.36
2019-05-25T20:46:23.013Z,14.34
2019-05-25T20:51:27.939Z,14.56
2019-05-25T20:56:32.810Z,14.53
2019-05-25T21:01:37.670Z,14.52
2019-05-25T21:06:42.741Z,14.32
2019-05-25T21:11:47.531Z,14.24
2019-05-25T21:16:52.350Z,14.18
2019-05-25T21:21:57.067Z,14.18
2019-05-25T21:27:02.319Z,14.41
2019-05-25T21:32:07.359Z,14.58
2019-05-25T21:37:12.490Z,14.57
2019-05-25T21:42:17.310Z,14.39
2019-05-25T21:47:22.138Z,14.35
2019-05-25T21:52:26.987Z,14.29
2019-05-25T21:57:31.810Z,14.32
2019-05-25T22:02:36.690Z,14.28
2019-05-25T22:07:41.391Z,14.21
2019-05-25T22:12:46.190Z,14.15
2019-05-25T22:17:50.971Z,14.23
2019-05-25T22:22:55.670Z,14.14
2019-05-25T22:28:00.389Z,14.06
2019-05-25T22:33:05.271Z,14.09
2019-05-25T22:38:09.986Z,14.06
2019-05-25T22:43:14.810Z,14.11
2019-05-25T22:48:19.915Z,13.96
2019-05-25T22:53:24.810Z,14.14
2019-05-25T22:58:29.856Z,14.07
2019-05-25T23:03:35.120Z,14.03
2019-05-25T23:08:39.918Z,14.15
2019-05-25T23:13:45.237Z,14.14
2019-05-25T23:18:50.225Z,14.15
2019-05-25T23:23:55.318Z,14.04
2019-05-25T23:29:00.051Z,14.03
2019-05-25T23:34:04.911Z,14.00
2019-05-25T23:39:09.631Z,13.94
2019-05-25T23:44:14.568Z,13.79
2019-05-25T23:49:19.558Z,13.80
2019-05-25T23:54:24.324Z,13.76
2019-05-25T23:59:29.161Z,13.62
